sensor_id;sensor_type;location;lat;lon;timestamp;pressure;altitude;pressure_sealevel;temperature
62930;BMP280;49036;42.782;23.108;2023-11-22T00:00:36;89869.16;;;5.32
62930;BMP280;49036;42.782;23.108;2023-11-22T00:03:02;89865.72;;;5.31
62930;BMP280;49036;42.782;23.108;2023-11-22T00:05:27;89855.44;;;5.32
62930;BMP280;49036;42.782;23.108;2023-11-22T00:07:53;89849.94;;;5.32
62930;BMP280;49036;42.782;23.108;2023-11-22T00:10:18;89845.97;;;5.39
62930;BMP280;49036;42.782;23.108;2023-11-22T00:12:44;89860.34;;;5.37
62930;BMP280;49036;42.782;23.108;2023-11-22T00:15:09;89846.66;;;5.39
62930;BMP280;49036;42.782;23.108;2023-11-22T00:17:37;89827.97;;;5.34
62930;BMP280;49036;42.782;23.108;2023-11-22T00:20:02;89796.97;;;5.29
62930;BMP280;49036;42.782;23.108;2023-11-22T00:22:32;89761.97;;;5.30
62930;BMP280;49036;42.782;23.108;2023-11-22T00:24:59;89731.94;;;5.40
62930;BMP280;49036;42.782;23.108;2023-11-22T00:27:27;89760.91;;;5.45
62930;BMP280;49036;42.782;23.108;2023-11-22T00:29:52;89754.53;;;5.36
62930;BMP280;49036;42.782;23.108;2023-11-22T00:32:18;89758.72;;;5.39
62930;BMP280;49036;42.782;23.108;2023-11-22T00:34:44;89764.38;;;5.45
62930;BMP280;49036;42.782;23.108;2023-11-22T00:37:10;89794.44;;;5.39
62930;BMP280;49036;42.782;23.108;2023-11-22T00:39:36;89748.41;;;5.38
62930;BMP280;49036;42.782;23.108;2023-11-22T00:42:02;89732.09;;;5.46
62930;BMP280;49036;42.782;23.108;2023-11-22T00:44:29;89735.59;;;5.50
62930;BMP280;49036;42.782;23.108;2023-11-22T00:46:55;89728.06;;;5.51
62930;BMP280;49036;42.782;23.108;2023-11-22T00:49:22;89692.13;;;5.41
62930;BMP280;49036;42.782;23.108;2023-11-22T00:51:48;89681.03;;;5.37
62930;BMP280;49036;42.782;23.108;2023-11-22T00:54:13;89652.94;;;5.38
62930;BMP280;49036;42.782;23.108;2023-11-22T00:56:40;89640.56;;;5.39
62930;BMP280;49036;42.782;23.108;2023-11-22T00:59:06;89626.28;;;5.45
62930;BMP280;49036;42.782;23.108;2023-11-22T01:01:31;89629.72;;;5.45
62930;BMP280;49036;42.782;23.108;2023-11-22T01:03:57;89628.31;;;5.44
62930;BMP280;49036;42.782;23.108;2023-11-22T01:06:23;89639.94;;;5.43
62930;BMP280;49036;42.782;23.108;2023-11-22T01:08:48;89635.13;;;5.41
62930;BMP280;49036;42.782;23.108;2023-11-22T01:11:14;89638.53;;;5.40
62930;BMP280;49036;42.782;23.108;2023-11-22T01:13:39;89617.91;;;5.39
62930;BMP280;49036;42.782;23.108;2023-11-22T01:16:08;89612.47;;;5.43
62930;BMP280;49036;42.782;23.108;2023-11-22T01:18:33;89606.22;;;5.38
62930;BMP280;49036;42.782;23.108;2023-11-22T01:20:59;89599.28;;;5.35
62930;BMP280;49036;42.782;23.108;2023-11-22T01:23:25;89584.81;;;5.31
62930;BMP280;49036;42.782;23.108;2023-11-22T01:25:50;89576.56;;;5.33
62930;BMP280;49036;42.782;23.108;2023-11-22T01:28:16;89577.28;;;5.35
62930;BMP280;49036;42.782;23.108;2023-11-22T01:30:44;89579.44;;;5.39
62930;BMP280;49036;42.782;23.108;2023-11-22T01:33:14;89593.09;;;5.35
62930;BMP280;49036;42.782;23.108;2023-11-22T01:35:40;89603.47;;;5.38
62930;BMP280;49036;42.782;23.108;2023-11-22T01:38:06;89621.84;;;5.30
62930;BMP280;49036;42.782;23.108;2023-11-22T01:40:31;89610.22;;;5.33
62930;BMP280;49036;42.782;23.108;2023-11-22T01:42:58;89609.53;;;5.33
62930;BMP280;49036;42.782;23.108;2023-11-22T01:45:23;89619.03;;;5.26
62930;BMP280;49036;42.782;23.108;2023-11-22T01:47:49;89621.66;;;5.19
62930;BMP280;49036;42.782;23.108;2023-11-22T01:50:15;89578.41;;;5.20
62930;BMP280;49036;42.782;23.108;2023-11-22T01:52:41;89574.25;;;5.19
62930;BMP280;49036;42.782;23.108;2023-11-22T01:55:08;89557.16;;;5.22
62930;BMP280;49036;42.782;23.108;2023-11-22T01:57:34;89549.53;;;5.19
62930;BMP280;49036;42.782;23.108;2023-11-22T02:00:06;89535.28;;;5.27
62930;BMP280;49036;42.782;23.108;2023-11-22T02:02:39;89546.22;;;5.25
62930;BMP280;49036;42.782;23.108;2023-11-22T02:05:04;89541.44;;;5.25
62930;BMP280;49036;42.782;23.108;2023-11-22T02:07:30;89551.63;;;5.20
62930;BMP280;49036;42.782;23.108;2023-11-22T02:09:57;89549.00;;;5.27
62930;BMP280;49036;42.782;23.108;2023-11-22T02:12:23;89549.03;;;5.29
62930;BMP280;49036;42.782;23.108;2023-11-22T02:14:48;89556.66;;;5.32
62930;BMP280;49036;42.782;23.108;2023-11-22T02:17:15;89555.91;;;5.30
62930;BMP280;49036;42.782;23.108;2023-11-22T02:19:42;89550.47;;;5.32
62930;BMP280;49036;42.782;23.108;2023-11-22T02:22:08;89547.03;;;5.33
62930;BMP280;49036;42.782;23.108;2023-11-22T02:24:33;89571.09;;;5.35
62930;BMP280;49036;42.782;23.108;2023-11-22T02:27:00;89585.50;;;5.33
62930;BMP280;49036;42.782;23.108;2023-11-22T02:29:26;89579.22;;;5.27
62930;BMP280;49036;42.782;23.108;2023-11-22T02:31:51;89571.69;;;5.29
62930;BMP280;49036;42.782;23.108;2023-11-22T02:34:17;89564.09;;;5.26
62930;BMP280;49036;42.782;23.108;2023-11-22T02:36:42;89562.06;;;5.28
62930;BMP280;49036;42.782;23.108;2023-11-22T02:39:11;89555.09;;;5.23
62930;BMP280;49036;42.782;23.108;2023-11-22T02:41:38;89546.22;;;5.25
62930;BMP280;49036;42.782;23.108;2023-11-22T02:44:04;89542.03;;;5.21
62930;BMP280;49036;42.782;23.108;2023-11-22T02:46:32;89523.50;;;5.22
62930;BMP280;49036;42.782;23.108;2023-11-22T02:48:58;89516.53;;;5.15
62930;BMP280;49036;42.782;23.108;2023-11-22T02:51:24;89491.13;;;5.14
62930;BMP280;49036;42.782;23.108;2023-11-22T02:53:51;89473.81;;;5.08
62930;BMP280;49036;42.782;23.108;2023-11-22T02:56:17;89458.69;;;5.07
62930;BMP280;49036;42.782;23.108;2023-11-22T02:58:43;89438.00;;;5.00
62930;BMP280;49036;42.782;23.108;2023-11-22T03:01:08;89408.38;;;4.94
62930;BMP280;49036;42.782;23.108;2023-11-22T03:03:34;89376.09;;;4.92
62930;BMP280;49036;42.782;23.108;2023-11-22T03:06:00;89350.69;;;4.92
62930;BMP280;49036;42.782;23.108;2023-11-22T03:08:26;89324.56;;;4.87
62930;BMP280;49036;42.782;23.108;2023-11-22T03:10:52;89310.88;;;4.89
62930;BMP280;49036;42.782;23.108;2023-11-22T03:13:18;89303.28;;;4.87
62930;BMP280;49036;42.782;23.108;2023-11-22T03:15:44;89301.22;;;4.86
62930;BMP280;49036;42.782;23.108;2023-11-22T03:18:09;89299.09;;;4.84
62930;BMP280;49036;42.782;23.108;2023-11-22T03:20:37;89298.50;;;4.88
62930;BMP280;49036;42.782;23.108;2023-11-22T03:23:03;89285.50;;;4.92
62930;BMP280;49036;42.782;23.108;2023-11-22T03:25:29;89282.13;;;4.96
62930;BMP280;49036;42.782;23.108;2023-11-22T03:27:54;89282.94;;;5.05
62930;BMP280;49036;42.782;23.108;2023-11-22T03:30:21;89282.38;;;5.12
62930;BMP280;49036;42.782;23.108;2023-11-22T03:32:46;89309.75;;;5.08
62930;BMP280;49036;42.782;23.108;2023-11-22T03:35:12;89312.50;;;5.08
62930;BMP280;49036;42.782;23.108;2023-11-22T03:37:37;89315.97;;;5.11
62930;BMP280;49036;42.782;23.108;2023-11-22T03:40:03;89335.84;;;5.09
62930;BMP280;49036;42.782;23.108;2023-11-22T03:42:29;89322.13;;;5.09
62930;BMP280;49036;42.782;23.108;2023-11-22T03:44:55;89324.19;;;5.11
62930;BMP280;49036;42.782;23.108;2023-11-22T03:47:20;89328.38;;;5.12
62930;BMP280;49036;42.782;23.108;2023-11-22T03:49:46;89326.25;;;5.10
62930;BMP280;49036;42.782;23.108;2023-11-22T03:52:12;89323.47;;;5.08
62930;BMP280;49036;42.782;23.108;2023-11-22T03:54:38;89323.56;;;5.12
62930;BMP280;49036;42.782;23.108;2023-11-22T03:57:04;89332.53;;;5.17
62930;BMP280;49036;42.782;23.108;2023-11-22T03:59:29;89342.19;;;5.18
62930;BMP280;49036;42.782;23.108;2023-11-22T04:01:55;89342.25;;;5.24
62930;BMP280;49036;42.782;23.108;2023-11-22T04:04:21;89344.97;;;5.22
62930;BMP280;49036;42.782;23.108;2023-11-22T04:06:46;89368.19;;;5.13
62930;BMP280;49036;42.782;23.108;2023-11-22T04:09:12;89355.78;;;5.10
62930;BMP280;49036;42.782;23.108;2023-11-22T04:11:38;89332.41;;;5.09
62930;BMP280;49036;42.782;23.108;2023-11-22T04:14:04;89318.03;;;5.10
62930;BMP280;49036;42.782;23.108;2023-11-22T04:16:30;89312.69;;;5.18
62930;BMP280;49036;42.782;23.108;2023-11-22T04:18:55;89311.28;;;5.17
62930;BMP280;49036;42.782;23.108;2023-11-22T04:21:21;89310.03;;;5.27
62930;BMP280;49036;42.782;23.108;2023-11-22T04:23:46;89307.91;;;5.23
62930;BMP280;49036;42.782;23.108;2023-11-22T04:26:13;89314.88;;;5.30
62930;BMP280;49036;42.782;23.108;2023-11-22T04:28:39;89325.97;;;5.38
62930;BMP280;49036;42.782;23.108;2023-11-22T04:31:04;89352.88;;;5.44
62930;BMP280;49036;42.782;23.108;2023-11-22T04:33:30;89361.09;;;5.44
62930;BMP280;49036;42.782;23.108;2023-11-22T04:35:56;89359.16;;;5.55
62930;BMP280;49036;42.782;23.108;2023-11-22T04:38:21;89388.78;;;5.58
62930;BMP280;49036;42.782;23.108;2023-11-22T04:40:47;89415.47;;;5.51
62930;BMP280;49036;42.782;23.108;2023-11-22T04:43:13;89423.03;;;5.53
62930;BMP280;49036;42.782;23.108;2023-11-22T04:45:38;89427.81;;;5.50
62930;BMP280;49036;42.782;23.108;2023-11-22T04:48:04;89419.41;;;5.38
62930;BMP280;49036;42.782;23.108;2023-11-22T04:50:32;89386.53;;;5.44
62930;BMP280;49036;42.782;23.108;2023-11-22T04:52:57;89365.84;;;5.39
62930;BMP280;49036;42.782;23.108;2023-11-22T04:55:23;89329.44;;;5.39
62930;BMP280;49036;42.782;23.108;2023-11-22T04:57:49;89286.84;;;5.40
62930;BMP280;49036;42.782;23.108;2023-11-22T05:00:15;89255.97;;;5.41
62930;BMP280;49036;42.782;23.108;2023-11-22T05:02:41;89210.69;;;5.48
62930;BMP280;49036;42.782;23.108;2023-11-22T05:05:07;89181.84;;;5.49
62930;BMP280;49036;42.782;23.108;2023-11-22T05:07:35;89159.25;;;5.55
62930;BMP280;49036;42.782;23.108;2023-11-22T05:10:01;89166.88;;;5.59
62930;BMP280;49036;42.782;23.108;2023-11-22T05:12:28;89167.56;;;5.61
62930;BMP280;49036;42.782;23.108;2023-11-22T05:14:53;89170.31;;;5.61
62930;BMP280;49036;42.782;23.108;2023-11-22T05:17:19;89168.94;;;5.62
62930;BMP280;49036;42.782;23.108;2023-11-22T05:19:45;89179.31;;;5.66
62930;BMP280;49036;42.782;23.108;2023-11-22T05:22:10;89182.06;;;5.68
62930;BMP280;49036;42.782;23.108;2023-11-22T05:24:36;89166.28;;;5.72
62930;BMP280;49036;42.782;23.108;2023-11-22T05:27:04;89154.00;;;5.77
62930;BMP280;49036;42.782;23.108;2023-11-22T05:29:29;89150.50;;;5.75
62930;BMP280;49036;42.782;23.108;2023-11-22T05:31:55;89121.72;;;5.80
62930;BMP280;49036;42.782;23.108;2023-11-22T05:34:21;89117.63;;;5.83
62930;BMP280;49036;42.782;23.108;2023-11-22T05:36:46;89110.03;;;5.81
62930;BMP280;49036;42.782;23.108;2023-11-22T05:39:12;89094.88;;;5.76
62930;BMP280;49036;42.782;23.108;2023-11-22T05:41:38;89071.47;;;5.73
62930;BMP280;49036;42.782;23.108;2023-11-22T05:44:04;89047.44;;;5.70
62930;BMP280;49036;42.782;23.108;2023-11-22T05:46:29;89028.19;;;5.70
62930;BMP280;49036;42.782;23.108;2023-11-22T05:48:54;89013.72;;;5.67
62930;BMP280;49036;42.782;23.108;2023-11-22T05:51:20;89009.53;;;5.60
62930;BMP280;49036;42.782;23.108;2023-11-22T05:53:46;88974.56;;;5.67
62930;BMP280;49036;42.782;23.108;2023-11-22T05:56:12;88958.78;;;5.73
62930;BMP280;49036;42.782;23.108;2023-11-22T05:58:38;88975.28;;;5.71
62930;BMP280;49036;42.782;23.108;2023-11-22T06:01:08;88969.00;;;5.61
62930;BMP280;49036;42.782;23.108;2023-11-22T06:03:35;88932.59;;;5.60
62930;BMP280;49036;42.782;23.108;2023-11-22T06:06:01;88907.88;;;5.60
62930;BMP280;49036;42.782;23.108;2023-11-22T06:08:28;88888.00;;;5.66
62930;BMP280;49036;42.782;23.108;2023-11-22T06:10:54;88871.47;;;5.62
62930;BMP280;49036;42.782;23.108;2023-11-22T06:13:22;88859.78;;;5.61
62930;BMP280;49036;42.782;23.108;2023-11-22T06:15:48;88830.28;;;5.66
62930;BMP280;49036;42.782;23.108;2023-11-22T06:18:13;88816.53;;;5.66
62930;BMP280;49036;42.782;23.108;2023-11-22T06:20:41;88799.41;;;5.69
62930;BMP280;49036;42.782;23.108;2023-11-22T06:23:06;88770.53;;;5.74
62930;BMP280;49036;42.782;23.108;2023-11-22T06:25:32;88752.69;;;5.81
62930;BMP280;49036;42.782;23.108;2023-11-22T06:27:57;88723.84;;;5.91
62930;BMP280;49036;42.782;23.108;2023-11-22T06:30:23;88693.63;;;6.03
62930;BMP280;49036;42.782;23.108;2023-11-22T06:32:50;88681.28;;;6.10
62930;BMP280;49036;42.782;23.108;2023-11-22T06:35:16;88658.56;;;6.26
62930;BMP280;49036;42.782;23.108;2023-11-22T06:37:43;88637.22;;;6.38
62930;BMP280;49036;42.782;23.108;2023-11-22T06:40:10;88622.09;;;6.44
62930;BMP280;49036;42.782;23.108;2023-11-22T06:42:37;88616.59;;;6.50
62930;BMP280;49036;42.782;23.108;2023-11-22T06:45:05;88616.56;;;6.62
62930;BMP280;49036;42.782;23.108;2023-11-22T06:47:32;88632.38;;;6.65
62930;BMP280;49036;42.782;23.108;2023-11-22T06:49:57;88648.22;;;6.67
62930;BMP280;49036;42.782;23.108;2023-11-22T06:52:23;88677.78;;;6.62
62930;BMP280;49036;42.782;23.108;2023-11-22T06:54:49;88699.13;;;6.66
62930;BMP280;49036;42.782;23.108;2023-11-22T06:57:15;88683.28;;;6.79
62930;BMP280;49036;42.782;23.108;2023-11-22T06:59:41;88694.94;;;6.89
62930;BMP280;49036;42.782;23.108;2023-11-22T07:02:06;88697.66;;;7.02
62930;BMP280;49036;42.782;23.108;2023-11-22T07:04:32;88716.25;;;7.07
62930;BMP280;49036;42.782;23.108;2023-11-22T07:06:58;88718.97;;;7.15
62930;BMP280;49036;42.782;23.108;2023-11-22T07:09:23;88737.53;;;7.25
62930;BMP280;49036;42.782;23.108;2023-11-22T07:11:50;88763.00;;;7.23
62930;BMP280;49036;42.782;23.108;2023-11-22T07:14:17;88782.28;;;7.34
62930;BMP280;49036;42.782;23.108;2023-11-22T07:16:42;88806.34;;;7.45
62930;BMP280;49036;42.782;23.108;2023-11-22T07:19:08;88835.97;;;7.47
62930;BMP280;49036;42.782;23.108;2023-11-22T07:21:33;88855.28;;;7.41
62930;BMP280;49036;42.782;23.108;2023-11-22T07:24:03;88871.16;;;7.44
62930;BMP280;49036;42.782;23.108;2023-11-22T07:26:32;88897.31;;;7.51
62930;BMP280;49036;42.782;23.108;2023-11-22T07:28:58;88942.81;;;7.44
62930;BMP280;49036;42.782;23.108;2023-11-22T07:31:24;88954.50;;;7.57
62930;BMP280;49036;42.782;23.108;2023-11-22T07:33:50;89011.69;;;7.52
62930;BMP280;49036;42.782;23.108;2023-11-22T07:36:16;89055.78;;;7.48
62930;BMP280;49036;42.782;23.108;2023-11-22T07:38:42;89077.16;;;7.50
62930;BMP280;49036;42.782;23.108;2023-11-22T07:41:08;89079.25;;;7.51
62930;BMP280;49036;42.782;23.108;2023-11-22T07:43:33;89090.97;;;7.56
62930;BMP280;49036;42.782;23.108;2023-11-22T07:45:59;89106.13;;;7.61
62930;BMP280;49036;42.782;23.108;2023-11-22T07:48:26;89115.78;;;7.70
62930;BMP280;49036;42.782;23.108;2023-11-22T07:50:53;89129.59;;;7.82
62930;BMP280;49036;42.782;23.108;2023-11-22T07:53:19;89157.88;;;7.89
62930;BMP280;49036;42.782;23.108;2023-11-22T07:55:45;89287.50;;;7.83
62930;BMP280;49036;42.782;23.108;2023-11-22T07:58:10;89407.41;;;7.72
62930;BMP280;49036;42.782;23.108;2023-11-22T08:00:36;89394.44;;;7.93
62930;BMP280;49036;42.782;23.108;2023-11-22T08:03:07;89311.03;;;8.18
62930;BMP280;49036;42.782;23.108;2023-11-22T08:05:32;89246.25;;;8.50
62930;BMP280;49036;42.782;23.108;2023-11-22T08:08:04;89235.19;;;8.78
62930;BMP280;49036;42.782;23.108;2023-11-22T08:10:36;89333.94;;;8.82
62930;BMP280;49036;42.782;23.108;2023-11-22T08:13:02;89403.00;;;8.84
62930;BMP280;49036;42.782;23.108;2023-11-22T08:15:28;89443.09;;;8.93
62930;BMP280;49036;42.782;23.108;2023-11-22T08:17:54;89647.53;;;8.89
62930;BMP280;49036;42.782;23.108;2023-11-22T08:20:20;89711.78;;;8.90
62930;BMP280;49036;42.782;23.108;2023-11-22T08:22:47;89759.50;;;8.94
62930;BMP280;49036;42.782;23.108;2023-11-22T08:25:14;89999.19;;;8.86
62930;BMP280;49036;42.782;23.108;2023-11-22T08:27:41;90042.53;;;8.73
62930;BMP280;49036;42.782;23.108;2023-11-22T08:30:10;90043.75;;;8.62
62930;BMP280;49036;42.782;23.108;2023-11-22T08:32:42;90016.22;;;8.68
62930;BMP280;49036;42.782;23.108;2023-11-22T08:35:09;90005.22;;;8.72
62930;BMP280;49036;42.782;23.108;2023-11-22T08:37:34;90003.53;;;8.46
62930;BMP280;49036;42.782;23.108;2023-11-22T08:40:04;89953.91;;;8.55
62930;BMP280;49036;42.782;23.108;2023-11-22T08:42:30;89979.59;;;8.65
62930;BMP280;49036;42.782;23.108;2023-11-22T08:44:55;90014.28;;;8.78
62930;BMP280;49036;42.782;23.108;2023-11-22T08:47:21;90022.75;;;8.97
62930;BMP280;49036;42.782;23.108;2023-11-22T08:49:46;90077.38;;;8.98
62930;BMP280;49036;42.782;23.108;2023-11-22T08:52:13;90102.97;;;9.01
62930;BMP280;49036;42.782;23.108;2023-11-22T08:54:39;90108.66;;;9.11
62930;BMP280;49036;42.782;23.108;2023-11-22T08:57:05;90101.81;;;9.18
62930;BMP280;49036;42.782;23.108;2023-11-22T08:59:31;90189.59;;;9.18
62930;BMP280;49036;42.782;23.108;2023-11-22T09:02:03;90226.94;;;9.19
62930;BMP280;49036;42.782;23.108;2023-11-22T09:04:29;90240.97;;;9.35
62930;BMP280;49036;42.782;23.108;2023-11-22T09:06:57;90316.28;;;9.29
62930;BMP280;49036;42.782;23.108;2023-11-22T09:09:23;90330.13;;;9.31
62930;BMP280;49036;42.782;23.108;2023-11-22T09:11:58;90362.25;;;9.55
62930;BMP280;49036;42.782;23.108;2023-11-22T09:14:25;90472.63;;;9.76
62930;BMP280;49036;42.782;23.108;2023-11-22T09:16:50;90518.44;;;9.86
62930;BMP280;49036;42.782;23.108;2023-11-22T09:19:22;90539.34;;;9.95
62930;BMP280;49036;42.782;23.108;2023-11-22T09:21:49;90570.28;;;9.83
62930;BMP280;49036;42.782;23.108;2023-11-22T09:24:14;90687.88;;;9.78
62930;BMP280;49036;42.782;23.108;2023-11-22T09:26:40;90686.19;;;9.63
62930;BMP280;49036;42.782;23.108;2023-11-22T09:29:05;90661.47;;;9.37
62930;BMP280;49036;42.782;23.108;2023-11-22T09:31:31;90553.59;;;9.37
62930;BMP280;49036;42.782;23.108;2023-11-22T09:33:57;90467.75;;;9.33
62930;BMP280;49036;42.782;23.108;2023-11-22T09:36:22;90368.91;;;9.35
62930;BMP280;49036;42.782;23.108;2023-11-22T09:38:50;90391.88;;;9.44
62930;BMP280;49036;42.782;23.108;2023-11-22T09:41:17;90439.72;;;9.55
62930;BMP280;49036;42.782;23.108;2023-11-22T09:43:43;90490.25;;;9.55
62930;BMP280;49036;42.782;23.108;2023-11-22T09:46:09;90554.91;;;9.34
62930;BMP280;49036;42.782;23.108;2023-11-22T09:48:36;90565.13;;;9.25
62930;BMP280;49036;42.782;23.108;2023-11-22T09:51:29;90521.94;;;9.46
62930;BMP280;49036;42.782;23.108;2023-11-22T09:54:03;90474.38;;;9.58
62930;BMP280;49036;42.782;23.108;2023-11-22T09:56:34;90546.81;;;9.86
62930;BMP280;49036;42.782;23.108;2023-11-22T09:59:03;90604.41;;;9.94
62930;BMP280;49036;42.782;23.108;2023-11-22T10:01:30;90680.47;;;9.91
62930;BMP280;49036;42.782;23.108;2023-11-22T10:04:01;90664.41;;;9.83
62930;BMP280;49036;42.782;23.108;2023-11-22T10:06:27;90651.97;;;9.84
62930;BMP280;49036;42.782;23.108;2023-11-22T10:08:58;90708.81;;;9.87
62930;BMP280;49036;42.782;23.108;2023-11-22T10:11:24;90773.66;;;9.76
62930;BMP280;49036;42.782;23.108;2023-11-22T10:13:50;90759.16;;;9.80
62930;BMP280;49036;42.782;23.108;2023-11-22T10:16:17;90651.84;;;9.76
62930;BMP280;49036;42.782;23.108;2023-11-22T10:18:45;90550.72;;;9.71
62930;BMP280;49036;42.782;23.108;2023-11-22T10:21:25;90416.44;;;9.68
62930;BMP280;49036;42.782;23.108;2023-11-22T10:23:56;90243.38;;;9.61
62930;BMP280;49036;42.782;23.108;2023-11-22T10:26:23;90060.06;;;9.60
62930;BMP280;49036;42.782;23.108;2023-11-22T10:28:52;89934.91;;;9.66
62930;BMP280;49036;42.782;23.108;2023-11-22T10:31:19;89896.25;;;9.78
62930;BMP280;49036;42.782;23.108;2023-11-22T10:33:44;89908.72;;;9.83
62930;BMP280;49036;42.782;23.108;2023-11-22T10:36:11;89890.78;;;9.88
62930;BMP280;49036;42.782;23.108;2023-11-22T10:38:37;89879.75;;;9.98
62930;BMP280;49036;42.782;23.108;2023-11-22T10:41:06;89860.41;;;10.06
62930;BMP280;49036;42.782;23.108;2023-11-22T10:43:34;89937.28;;;10.10
62930;BMP280;49036;42.782;23.108;2023-11-22T10:58:03;90307.81;;;10.28
62930;BMP280;49036;42.782;23.108;2023-11-22T11:00:32;90372.88;;;10.25
62930;BMP280;49036;42.782;23.108;2023-11-22T11:03:07;90412.28;;;10.17
62930;BMP280;49036;42.782;23.108;2023-11-22T11:05:38;90469.53;;;10.00
62930;BMP280;49036;42.782;23.108;2023-11-22T11:10:40;90446.25;;;9.73
62930;BMP280;49036;42.782;23.108;2023-11-22T11:13:10;90423.97;;;9.63
62930;BMP280;49036;42.782;23.108;2023-11-22T11:15:40;90349.06;;;9.49
62930;BMP280;49036;42.782;23.108;2023-11-22T11:18:10;90301.25;;;9.42
62930;BMP280;49036;42.782;23.108;2023-11-22T11:20:52;90249.91;;;9.31
62930;BMP280;49036;42.782;23.108;2023-11-22T11:23:38;90147.50;;;9.23
62930;BMP280;49036;42.782;23.108;2023-11-22T11:26:33;90080.50;;;9.29
62930;BMP280;49036;42.782;23.108;2023-11-22T11:29:00;89984.59;;;9.50
62930;BMP280;49036;42.782;23.108;2023-11-22T11:31:31;89958.31;;;9.53
62930;BMP280;49036;42.782;23.108;2023-11-22T11:33:57;90093.13;;;9.46
62930;BMP280;49036;42.782;23.108;2023-11-22T11:36:26;90194.69;;;9.37
62930;BMP280;49036;42.782;23.108;2023-11-22T11:38:54;90131.84;;;9.48
62930;BMP280;49036;42.782;23.108;2023-11-22T11:41:25;90130.44;;;9.43
62930;BMP280;49036;42.782;23.108;2023-11-22T11:43:52;90284.34;;;9.22
62930;BMP280;49036;42.782;23.108;2023-11-22T11:46:17;90306.22;;;9.06
62930;BMP280;49036;42.782;23.108;2023-11-22T11:48:53;90286.72;;;8.96
62930;BMP280;49036;42.782;23.108;2023-11-22T11:51:21;90290.06;;;8.86
62930;BMP280;49036;42.782;23.108;2023-11-22T11:53:47;90228.66;;;8.94
62930;BMP280;49036;42.782;23.108;2023-11-22T11:56:14;90094.16;;;9.14
62930;BMP280;49036;42.782;23.108;2023-11-22T11:58:41;90114.44;;;9.35
62930;BMP280;49036;42.782;23.108;2023-11-22T12:01:07;90273.38;;;9.28
62930;BMP280;49036;42.782;23.108;2023-11-22T12:03:33;90245.28;;;9.46
62930;BMP280;49036;42.782;23.108;2023-11-22T12:05:58;90213.63;;;9.59
62930;BMP280;49036;42.782;23.108;2023-11-22T12:08:24;90268.94;;;9.57
62930;BMP280;49036;42.782;23.108;2023-11-22T12:10:49;90365.69;;;9.51
62930;BMP280;49036;42.782;23.108;2023-11-22T12:13:19;90311.91;;;9.62
62930;BMP280;49036;42.782;23.108;2023-11-22T12:15:46;90267.03;;;9.70
62930;BMP280;49036;42.782;23.108;2023-11-22T12:18:12;90316.06;;;9.65
62930;BMP280;49036;42.782;23.108;2023-11-22T12:20:38;90349.88;;;9.58
62930;BMP280;49036;42.782;23.108;2023-11-22T12:23:04;90369.22;;;9.56
62930;BMP280;49036;42.782;23.108;2023-11-22T12:25:30;90392.03;;;9.54
62930;BMP280;49036;42.782;23.108;2023-11-22T12:27:56;90414.94;;;9.61
62930;BMP280;49036;42.782;23.108;2023-11-22T12:30:35;90321.09;;;9.77
62930;BMP280;49036;42.782;23.108;2023-11-22T12:33:10;90275.50;;;9.84
62930;BMP280;49036;42.782;23.108;2023-11-22T12:35:38;90323.25;;;9.85
62930;BMP280;49036;42.782;23.108;2023-11-22T12:38:05;90321.22;;;9.89
62930;BMP280;49036;42.782;23.108;2023-11-22T12:40:32;90348.94;;;9.91
62930;BMP280;49036;42.782;23.108;2023-11-22T12:42:58;90502.53;;;9.86
62930;BMP280;49036;42.782;23.108;2023-11-22T12:45:26;90545.66;;;9.59
62930;BMP280;49036;42.782;23.108;2023-11-22T12:47:53;90247.00;;;9.19
62930;BMP280;49036;42.782;23.108;2023-11-22T12:50:36;89967.56;;;9.05
62930;BMP280;49036;42.782;23.108;2023-11-22T12:53:11;89810.63;;;8.93
62930;BMP280;49036;42.782;23.108;2023-11-22T12:55:50;89694.44;;;8.77
62930;BMP280;49036;42.782;23.108;2023-11-22T12:58:17;89563.94;;;8.80
62930;BMP280;49036;42.782;23.108;2023-11-22T13:00:47;89502.47;;;8.88
62930;BMP280;49036;42.782;23.108;2023-11-22T13:03:13;89511.50;;;9.03
62930;BMP280;49036;42.782;23.108;2023-11-22T13:05:43;89568.22;;;9.12
62930;BMP280;49036;42.782;23.108;2023-11-22T13:08:11;89602.81;;;9.31
62930;BMP280;49036;42.782;23.108;2023-11-22T13:10:39;89747.94;;;9.20
62930;BMP280;49036;42.782;23.108;2023-11-22T13:13:04;89730.72;;;9.40
62930;BMP280;49036;42.782;23.108;2023-11-22T13:15:34;89784.75;;;9.51
62930;BMP280;49036;42.782;23.108;2023-11-22T13:17:59;89854.59;;;9.52
62930;BMP280;49036;42.782;23.108;2023-11-22T13:20:25;89874.72;;;9.64
62930;BMP280;49036;42.782;23.108;2023-11-22T13:22:55;89934.91;;;9.66
62930;BMP280;49036;42.782;23.108;2023-11-22T13:25:21;89995.06;;;9.65
62930;BMP280;49036;42.782;23.108;2023-11-22T13:27:49;90017.22;;;9.61
62930;BMP280;49036;42.782;23.108;2023-11-22T13:30:16;90017.88;;;9.60
62930;BMP280;49036;42.782;23.108;2023-11-22T13:32:44;90007.53;;;9.62
62930;BMP280;49036;42.782;23.108;2023-11-22T13:35:10;90026.81;;;9.56
62930;BMP280;49036;42.782;23.108;2023-11-22T13:37:45;90062.81;;;9.58
62930;BMP280;49036;42.782;23.108;2023-11-22T13:40:16;90066.16;;;9.46
62930;BMP280;49036;42.782;23.108;2023-11-22T13:42:45;90046.78;;;9.44
62930;BMP280;49036;42.782;23.108;2023-11-22T13:45:12;90046.78;;;9.44
62930;BMP280;49036;42.782;23.108;2023-11-22T13:47:45;90051.50;;;9.34
62930;BMP280;49036;42.782;23.108;2023-11-22T13:50:13;90042.41;;;9.23
62930;BMP280;49036;42.782;23.108;2023-11-22T13:52:40;90033.31;;;9.14
62930;BMP280;49036;42.782;23.108;2023-11-22T13:55:06;90042.38;;;9.19
62930;BMP280;49036;42.782;23.108;2023-11-22T13:57:35;90050.53;;;9.09
62930;BMP280;49036;42.782;23.108;2023-11-22T14:00:01;90044.97;;;9.05
62930;BMP280;49036;42.782;23.108;2023-11-22T14:02:27;90025.53;;;8.95
62930;BMP280;49036;42.782;23.108;2023-11-22T14:04:53;89982.66;;;8.92
62930;BMP280;49036;42.782;23.108;2023-11-22T14:07:18;89997.13;;;8.90
62930;BMP280;49036;42.782;23.108;2023-11-22T14:09:44;89982.50;;;8.77
62930;BMP280;49036;42.782;23.108;2023-11-22T14:12:12;89938.78;;;8.62
62930;BMP280;49036;42.782;23.108;2023-11-22T14:14:37;89853.75;;;8.52
62930;BMP280;49036;42.782;23.108;2023-11-22T14:17:03;89775.03;;;8.49
62930;BMP280;49036;42.782;23.108;2023-11-22T14:19:29;89726.69;;;8.52
62930;BMP280;49036;42.782;23.108;2023-11-22T14:21:55;89686.00;;;8.55